LRCT

Details ICAO LRCT
Name CAMPIA TURZII
Region Romania
Timezone Europe/Bucharest (UTC+2.0)
Plans Departing 1
Arriving 1
Stats Elevation 1,083 ft / 330 m (AMSL)
Location 46.502279° 23.885914°
Runways 1
Magnetic Variation 5.531° E
Sunrise 2017-12-12 06:00:30 UTC / 2017-12-12 08:00:30 Local
Sunset 2017-12-12 14:38:41 UTC / 2017-12-12 16:38:41 Local
Advertisement - Login to hide

Runways

ID Width Length Bearing (true) Bearing (mag) Surface Threshold Offset Overrun Length
15 164 ft / 50 m 8,219 ft / 2,505 m 156.06° 150.53° Concrete 0 ft / 0 m 1,804 ft / 550 m
33 164 ft / 50 m 8,219 ft / 2,505 m 336.06° 330.53° Concrete 0 ft / 0 m 1,400 ft / 427 m

Map

Weather


0- 5 10 15 20 25 30 35+ Temperature / ° C

Clouds and Precipitation
Forecast for 2017-12-13 00:00 UTC. Updated 41 minutes ago

Ground ~20,000 ft ~40,000 ft Winds

METAR

LRCT 121900Z 15010KT 9999 SCT220 05/03 Q1015 BLU BLU

TAF

Not found

Frequencies

Tower 129.00 MHz TWR
Departure 129.00 MHz DEP
Approach 129.00 MHz APP
Warning: Do not use this data for real-world aviation or navigation. No guarantee of current accuracy is given.